sensor_id;sensor_type;location;lat;lon;timestamp;P1;durP1;ratioP1;P2;durP2;ratioP2
13588;SDS011;6865;52.552;13.434;2023-11-21T00:02:17;14.77;;;10.80;;
13588;SDS011;6865;52.552;13.434;2023-11-21T00:04:44;16.37;;;10.90;;
13588;SDS011;6865;52.552;13.434;2023-11-21T00:07:11;17.53;;;11.77;;
13588;SDS011;6865;52.552;13.434;2023-11-21T00:09:38;15.83;;;11.20;;
13588;SDS011;6865;52.552;13.434;2023-11-21T00:12:05;19.83;;;12.13;;
13588;SDS011;6865;52.552;13.434;2023-11-21T00:14:32;20.60;;;12.23;;
13588;SDS011;6865;52.552;13.434;2023-11-21T00:16:59;23.13;;;12.60;;
13588;SDS011;6865;52.552;13.434;2023-11-21T00:19:26;18.17;;;12.47;;
13588;SDS011;6865;52.552;13.434;2023-11-21T00:21:52;18.33;;;12.50;;
13588;SDS011;6865;52.552;13.434;2023-11-21T00:24:19;18.67;;;12.63;;
13588;SDS011;6865;52.552;13.434;2023-11-21T00:26:46;22.47;;;13.37;;
13588;SDS011;6865;52.552;13.434;2023-11-21T00:29:14;22.20;;;14.80;;
13588;SDS011;6865;52.552;13.434;2023-11-21T00:31:43;19.00;;;13.97;;
13588;SDS011;6865;52.552;13.434;2023-11-21T00:34:11;24.77;;;14.43;;
13588;SDS011;6865;52.552;13.434;2023-11-21T00:36:38;25.07;;;15.30;;
13588;SDS011;6865;52.552;13.434;2023-11-21T00:39:06;27.17;;;15.37;;
13588;SDS011;6865;52.552;13.434;2023-11-21T00:41:33;26.30;;;15.40;;
13588;SDS011;6865;52.552;13.434;2023-11-21T00:44:00;31.23;;;16.57;;
13588;SDS011;6865;52.552;13.434;2023-11-21T00:46:27;31.57;;;15.83;;
13588;SDS011;6865;52.552;13.434;2023-11-21T00:48:55;27.90;;;15.67;;
13588;SDS011;6865;52.552;13.434;2023-11-21T00:51:22;26.33;;;15.53;;
13588;SDS011;6865;52.552;13.434;2023-11-21T00:53:48;33.77;;;16.53;;
13588;SDS011;6865;52.552;13.434;2023-11-21T00:56:15;28.20;;;16.37;;
13588;SDS011;6865;52.552;13.434;2023-11-21T00:58:42;34.17;;;17.43;;
13588;SDS011;6865;52.552;13.434;2023-11-21T01:01:12;40.33;;;18.50;;
13588;SDS011;6865;52.552;13.434;2023-11-21T01:03:39;40.17;;;20.30;;
13588;SDS011;6865;52.552;13.434;2023-11-21T01:06:06;45.37;;;21.83;;
13588;SDS011;6865;52.552;13.434;2023-11-21T01:08:33;50.77;;;22.13;;
13588;SDS011;6865;52.552;13.434;2023-11-21T01:11:00;48.40;;;22.73;;
13588;SDS011;6865;52.552;13.434;2023-11-21T01:13:27;48.07;;;22.60;;
13588;SDS011;6865;52.552;13.434;2023-11-21T01:15:54;49.80;;;22.67;;
13588;SDS011;6865;52.552;13.434;2023-11-21T01:18:22;55.17;;;23.63;;
13588;SDS011;6865;52.552;13.434;2023-11-21T01:20:48;48.70;;;21.87;;
13588;SDS011;6865;52.552;13.434;2023-11-21T01:23:15;49.23;;;22.43;;
13588;SDS011;6865;52.552;13.434;2023-11-21T01:25:42;50.33;;;23.13;;
13588;SDS011;6865;52.552;13.434;2023-11-21T01:28:08;44.93;;;21.63;;
13588;SDS011;6865;52.552;13.434;2023-11-21T01:30:35;48.53;;;21.97;;
13588;SDS011;6865;52.552;13.434;2023-11-21T01:33:02;41.37;;;18.27;;
13588;SDS011;6865;52.552;13.434;2023-11-21T01:35:29;35.30;;;15.30;;
13588;SDS011;6865;52.552;13.434;2023-11-21T01:37:56;32.97;;;15.47;;
13588;SDS011;6865;52.552;13.434;2023-11-21T01:40:23;36.33;;;15.77;;
13588;SDS011;6865;52.552;13.434;2023-11-21T01:42:50;34.90;;;15.40;;
13588;SDS011;6865;52.552;13.434;2023-11-21T01:45:19;36.03;;;15.83;;
13588;SDS011;6865;52.552;13.434;2023-11-21T01:47:46;35.03;;;15.73;;
13588;SDS011;6865;52.552;13.434;2023-11-21T01:50:16;33.57;;;15.07;;
13588;SDS011;6865;52.552;13.434;2023-11-21T01:52:45;29.23;;;14.17;;
13588;SDS011;6865;52.552;13.434;2023-11-21T01:55:12;27.10;;;13.80;;
13588;SDS011;6865;52.552;13.434;2023-11-21T01:57:53;27.83;;;12.73;;
13588;SDS011;6865;52.552;13.434;2023-11-21T02:00:20;22.43;;;11.50;;
13588;SDS011;6865;52.552;13.434;2023-11-21T02:02:47;19.97;;;11.17;;
13588;SDS011;6865;52.552;13.434;2023-11-21T02:05:15;25.33;;;12.53;;
13588;SDS011;6865;52.552;13.434;2023-11-21T02:07:44;21.37;;;11.63;;
13588;SDS011;6865;52.552;13.434;2023-11-21T02:10:14;18.53;;;10.50;;
13588;SDS011;6865;52.552;13.434;2023-11-21T02:12:42;20.43;;;11.23;;
13588;SDS011;6865;52.552;13.434;2023-11-21T02:15:12;19.80;;;10.10;;
13588;SDS011;6865;52.552;13.434;2023-11-21T02:17:52;14.67;;;8.97;;
13588;SDS011;6865;52.552;13.434;2023-11-21T02:20:21;11.70;;;8.20;;
13588;SDS011;6865;52.552;13.434;2023-11-21T02:22:49;14.83;;;8.40;;
13588;SDS011;6865;52.552;13.434;2023-11-21T02:25:24;17.73;;;9.27;;
13588;SDS011;6865;52.552;13.434;2023-11-21T02:27:56;16.63;;;9.17;;
13588;SDS011;6865;52.552;13.434;2023-11-21T02:30:24;11.93;;;8.10;;
13588;SDS011;6865;52.552;13.434;2023-11-21T02:32:58;14.00;;;8.60;;
13588;SDS011;6865;52.552;13.434;2023-11-21T02:35:27;13.23;;;8.27;;
13588;SDS011;6865;52.552;13.434;2023-11-21T02:37:54;12.90;;;8.33;;
13588;SDS011;6865;52.552;13.434;2023-11-21T02:40:21;13.33;;;8.33;;
13588;SDS011;6865;52.552;13.434;2023-11-21T02:42:48;11.40;;;8.10;;
13588;SDS011;6865;52.552;13.434;2023-11-21T02:45:18;12.60;;;8.70;;
13588;SDS011;6865;52.552;13.434;2023-11-21T02:47:48;15.33;;;8.40;;
13588;SDS011;6865;52.552;13.434;2023-11-21T02:50:16;12.27;;;7.93;;
13588;SDS011;6865;52.552;13.434;2023-11-21T02:52:45;12.43;;;8.37;;
13588;SDS011;6865;52.552;13.434;2023-11-21T02:55:12;11.90;;;8.83;;
13588;SDS011;6865;52.552;13.434;2023-11-21T02:57:38;11.70;;;8.63;;
13588;SDS011;6865;52.552;13.434;2023-11-21T03:00:05;13.07;;;9.03;;
13588;SDS011;6865;52.552;13.434;2023-11-21T03:02:42;12.17;;;8.87;;
13588;SDS011;6865;52.552;13.434;2023-11-21T03:05:10;12.53;;;8.90;;
13588;SDS011;6865;52.552;13.434;2023-11-21T03:07:37;10.83;;;8.50;;
13588;SDS011;6865;52.552;13.434;2023-11-21T03:10:04;13.63;;;9.70;;
13588;SDS011;6865;52.552;13.434;2023-11-21T03:12:41;12.70;;;9.30;;
13588;SDS011;6865;52.552;13.434;2023-11-21T03:15:08;12.10;;;8.80;;
13588;SDS011;6865;52.552;13.434;2023-11-21T03:17:35;14.43;;;7.80;;
13588;SDS011;6865;52.552;13.434;2023-11-21T03:20:02;14.07;;;7.93;;
13588;SDS011;6865;52.552;13.434;2023-11-21T03:22:30;9.73;;;7.17;;
13588;SDS011;6865;52.552;13.434;2023-11-21T03:24:57;9.90;;;7.27;;
13588;SDS011;6865;52.552;13.434;2023-11-21T03:27:24;10.57;;;7.70;;
13588;SDS011;6865;52.552;13.434;2023-11-21T03:29:51;8.53;;;6.73;;
13588;SDS011;6865;52.552;13.434;2023-11-21T03:32:18;8.37;;;6.70;;
13588;SDS011;6865;52.552;13.434;2023-11-21T03:34:57;8.33;;;6.40;;
13588;SDS011;6865;52.552;13.434;2023-11-21T03:37:25;10.53;;;6.80;;
13588;SDS011;6865;52.552;13.434;2023-11-21T03:39:55;11.00;;;7.30;;
13588;SDS011;6865;52.552;13.434;2023-11-21T03:42:23;9.23;;;7.07;;
13588;SDS011;6865;52.552;13.434;2023-11-21T03:44:51;9.37;;;7.63;;
13588;SDS011;6865;52.552;13.434;2023-11-21T03:47:18;9.47;;;7.33;;
13588;SDS011;6865;52.552;13.434;2023-11-21T03:49:45;10.77;;;7.63;;
13588;SDS011;6865;52.552;13.434;2023-11-21T03:52:12;10.77;;;7.33;;
13588;SDS011;6865;52.552;13.434;2023-11-21T03:54:39;11.23;;;7.47;;
13588;SDS011;6865;52.552;13.434;2023-11-21T03:57:06;10.20;;;6.97;;
13588;SDS011;6865;52.552;13.434;2023-11-21T03:59:32;10.47;;;7.07;;
13588;SDS011;6865;52.552;13.434;2023-11-21T04:01:59;7.67;;;6.40;;
13588;SDS011;6865;52.552;13.434;2023-11-21T04:04:26;8.80;;;6.63;;
13588;SDS011;6865;52.552;13.434;2023-11-21T04:06:52;10.17;;;7.13;;
13588;SDS011;6865;52.552;13.434;2023-11-21T04:09:19;8.80;;;6.77;;
13588;SDS011;6865;52.552;13.434;2023-11-21T04:11:46;8.53;;;6.57;;
13588;SDS011;6865;52.552;13.434;2023-11-21T04:14:13;8.87;;;6.70;;
13588;SDS011;6865;52.552;13.434;2023-11-21T04:16:40;9.57;;;6.77;;
13588;SDS011;6865;52.552;13.434;2023-11-21T04:19:07;9.73;;;6.70;;
13588;SDS011;6865;52.552;13.434;2023-11-21T04:21:36;8.90;;;6.50;;
13588;SDS011;6865;52.552;13.434;2023-11-21T04:24:04;9.57;;;6.70;;
13588;SDS011;6865;52.552;13.434;2023-11-21T04:26:31;9.03;;;6.57;;
13588;SDS011;6865;52.552;13.434;2023-11-21T04:28:58;8.00;;;6.23;;
13588;SDS011;6865;52.552;13.434;2023-11-21T04:31:24;10.67;;;6.13;;
13588;SDS011;6865;52.552;13.434;2023-11-21T04:33:51;8.10;;;6.10;;
13588;SDS011;6865;52.552;13.434;2023-11-21T04:36:18;9.17;;;6.40;;
13588;SDS011;6865;52.552;13.434;2023-11-21T04:38:46;9.33;;;6.47;;
13588;SDS011;6865;52.552;13.434;2023-11-21T04:41:12;8.47;;;6.03;;
13588;SDS011;6865;52.552;13.434;2023-11-21T04:43:39;7.57;;;6.00;;
13588;SDS011;6865;52.552;13.434;2023-11-21T04:46:06;7.90;;;5.83;;
13588;SDS011;6865;52.552;13.434;2023-11-21T04:48:33;8.60;;;5.87;;
13588;SDS011;6865;52.552;13.434;2023-11-21T04:50:59;7.33;;;5.93;;
13588;SDS011;6865;52.552;13.434;2023-11-21T04:53:26;6.77;;;5.47;;
13588;SDS011;6865;52.552;13.434;2023-11-21T04:55:53;9.40;;;6.00;;
13588;SDS011;6865;52.552;13.434;2023-11-21T04:58:20;7.87;;;6.10;;
13588;SDS011;6865;52.552;13.434;2023-11-21T05:00:47;8.23;;;6.87;;
13588;SDS011;6865;52.552;13.434;2023-11-21T05:03:13;8.00;;;6.20;;
13588;SDS011;6865;52.552;13.434;2023-11-21T05:05:40;8.27;;;6.47;;
13588;SDS011;6865;52.552;13.434;2023-11-21T05:08:07;11.53;;;6.37;;
13588;SDS011;6865;52.552;13.434;2023-11-21T05:10:34;8.63;;;6.27;;
13588;SDS011;6865;52.552;13.434;2023-11-21T05:13:04;8.17;;;5.93;;
13588;SDS011;6865;52.552;13.434;2023-11-21T05:15:36;8.53;;;6.10;;
13588;SDS011;6865;52.552;13.434;2023-11-21T05:18:03;8.40;;;5.90;;
13588;SDS011;6865;52.552;13.434;2023-11-21T05:20:31;9.87;;;5.83;;
13588;SDS011;6865;52.552;13.434;2023-11-21T05:22:59;9.73;;;5.80;;
13588;SDS011;6865;52.552;13.434;2023-11-21T05:25:26;7.70;;;5.87;;
13588;SDS011;6865;52.552;13.434;2023-11-21T05:27:53;8.00;;;6.47;;
13588;SDS011;6865;52.552;13.434;2023-11-21T05:30:21;8.03;;;5.83;;
13588;SDS011;6865;52.552;13.434;2023-11-21T05:32:48;9.23;;;6.73;;
13588;SDS011;6865;52.552;13.434;2023-11-21T05:35:16;9.03;;;6.90;;
13588;SDS011;6865;52.552;13.434;2023-11-21T05:37:44;11.23;;;6.67;;
13588;SDS011;6865;52.552;13.434;2023-11-21T05:40:14;8.60;;;6.60;;
13588;SDS011;6865;52.552;13.434;2023-11-21T05:42:41;8.03;;;6.10;;
13588;SDS011;6865;52.552;13.434;2023-11-21T05:45:08;8.73;;;7.00;;
13588;SDS011;6865;52.552;13.434;2023-11-21T05:47:40;8.87;;;6.70;;
13588;SDS011;6865;52.552;13.434;2023-11-21T05:50:09;11.80;;;6.87;;
13588;SDS011;6865;52.552;13.434;2023-11-21T05:52:38;8.97;;;6.63;;
13588;SDS011;6865;52.552;13.434;2023-11-21T05:55:08;9.33;;;6.90;;
13588;SDS011;6865;52.552;13.434;2023-11-21T05:57:36;10.20;;;6.80;;
13588;SDS011;6865;52.552;13.434;2023-11-21T06:00:08;7.93;;;6.13;;
13588;SDS011;6865;52.552;13.434;2023-11-21T06:02:44;7.33;;;6.13;;
13588;SDS011;6865;52.552;13.434;2023-11-21T06:05:11;7.47;;;5.80;;
13588;SDS011;6865;52.552;13.434;2023-11-21T06:07:38;7.27;;;5.77;;
13588;SDS011;6865;52.552;13.434;2023-11-21T06:10:07;6.67;;;5.27;;
13588;SDS011;6865;52.552;13.434;2023-11-21T06:12:38;6.60;;;5.00;;
13588;SDS011;6865;52.552;13.434;2023-11-21T06:15:06;7.83;;;5.27;;
13588;SDS011;6865;52.552;13.434;2023-11-21T06:17:35;7.53;;;5.70;;
13588;SDS011;6865;52.552;13.434;2023-11-21T06:20:03;5.90;;;4.73;;
13588;SDS011;6865;52.552;13.434;2023-11-21T06:22:39;8.53;;;6.37;;
13588;SDS011;6865;52.552;13.434;2023-11-21T06:25:09;7.70;;;5.73;;
13588;SDS011;6865;52.552;13.434;2023-11-21T06:27:42;8.23;;;5.60;;
13588;SDS011;6865;52.552;13.434;2023-11-21T06:30:17;10.30;;;7.73;;
13588;SDS011;6865;52.552;13.434;2023-11-21T06:32:46;7.33;;;5.20;;
13588;SDS011;6865;52.552;13.434;2023-11-21T06:35:13;7.67;;;4.93;;
13588;SDS011;6865;52.552;13.434;2023-11-21T06:37:42;8.33;;;6.43;;
13588;SDS011;6865;52.552;13.434;2023-11-21T06:40:14;7.90;;;4.97;;
13588;SDS011;6865;52.552;13.434;2023-11-21T06:42:48;7.13;;;5.60;;
13588;SDS011;6865;52.552;13.434;2023-11-21T06:45:15;6.23;;;4.30;;
13588;SDS011;6865;52.552;13.434;2023-11-21T06:47:42;5.37;;;4.83;;
13588;SDS011;6865;52.552;13.434;2023-11-21T06:50:10;6.30;;;4.53;;
13588;SDS011;6865;52.552;13.434;2023-11-21T06:52:37;6.30;;;5.20;;
13588;SDS011;6865;52.552;13.434;2023-11-21T06:55:05;8.80;;;6.10;;
13588;SDS011;6865;52.552;13.434;2023-11-21T06:57:34;6.93;;;4.97;;
13588;SDS011;6865;52.552;13.434;2023-11-21T07:00:01;6.03;;;5.17;;
13588;SDS011;6865;52.552;13.434;2023-11-21T07:02:28;6.53;;;4.87;;
13588;SDS011;6865;52.552;13.434;2023-11-21T07:04:55;5.20;;;4.20;;
13588;SDS011;6865;52.552;13.434;2023-11-21T07:07:22;6.50;;;4.13;;
13588;SDS011;6865;52.552;13.434;2023-11-21T07:09:49;5.90;;;4.70;;
13588;SDS011;6865;52.552;13.434;2023-11-21T07:12:15;5.10;;;4.10;;
13588;SDS011;6865;52.552;13.434;2023-11-21T07:14:42;5.80;;;4.17;;
13588;SDS011;6865;52.552;13.434;2023-11-21T07:17:11;5.60;;;3.77;;
13588;SDS011;6865;52.552;13.434;2023-11-21T07:19:38;4.70;;;4.07;;
13588;SDS011;6865;52.552;13.434;2023-11-21T07:22:05;6.97;;;4.20;;
13588;SDS011;6865;52.552;13.434;2023-11-21T07:24:32;6.97;;;4.70;;
13588;SDS011;6865;52.552;13.434;2023-11-21T07:26:59;5.27;;;4.20;;
13588;SDS011;6865;52.552;13.434;2023-11-21T07:29:26;5.87;;;4.23;;
13588;SDS011;6865;52.552;13.434;2023-11-21T07:31:55;5.50;;;4.07;;
13588;SDS011;6865;52.552;13.434;2023-11-21T07:34:22;7.60;;;4.43;;
13588;SDS011;6865;52.552;13.434;2023-11-21T07:36:49;6.87;;;4.40;;
13588;SDS011;6865;52.552;13.434;2023-11-21T07:39:16;6.50;;;4.33;;
13588;SDS011;6865;52.552;13.434;2023-11-21T07:41:42;6.90;;;4.37;;
13588;SDS011;6865;52.552;13.434;2023-11-21T07:44:16;5.33;;;4.20;;
13588;SDS011;6865;52.552;13.434;2023-11-21T07:46:43;4.73;;;4.00;;
13588;SDS011;6865;52.552;13.434;2023-11-21T07:49:11;5.30;;;4.40;;
13588;SDS011;6865;52.552;13.434;2023-11-21T07:51:38;4.83;;;3.97;;
13588;SDS011;6865;52.552;13.434;2023-11-21T07:54:04;4.97;;;3.70;;
13588;SDS011;6865;52.552;13.434;2023-11-21T07:56:31;4.43;;;3.77;;
13588;SDS011;6865;52.552;13.434;2023-11-21T07:58:58;5.27;;;4.20;;
13588;SDS011;6865;52.552;13.434;2023-11-21T08:01:25;4.80;;;4.13;;
13588;SDS011;6865;52.552;13.434;2023-11-21T08:03:53;5.40;;;4.17;;
13588;SDS011;6865;52.552;13.434;2023-11-21T08:06:23;5.00;;;3.63;;
13588;SDS011;6865;52.552;13.434;2023-11-21T08:08:51;5.40;;;4.30;;
13588;SDS011;6865;52.552;13.434;2023-11-21T08:11:18;7.03;;;4.30;;
13588;SDS011;6865;52.552;13.434;2023-11-21T08:13:47;6.40;;;4.37;;
13588;SDS011;6865;52.552;13.434;2023-11-21T08:16:14;5.33;;;3.90;;
13588;SDS011;6865;52.552;13.434;2023-11-21T08:18:41;6.20;;;4.03;;
13588;SDS011;6865;52.552;13.434;2023-11-21T08:21:08;7.00;;;4.17;;
13588;SDS011;6865;52.552;13.434;2023-11-21T08:23:34;7.53;;;3.97;;
13588;SDS011;6865;52.552;13.434;2023-11-21T08:26:01;5.20;;;3.37;;
13588;SDS011;6865;52.552;13.434;2023-11-21T08:28:31;6.93;;;4.27;;
13588;SDS011;6865;52.552;13.434;2023-11-21T08:30:58;6.27;;;4.10;;
13588;SDS011;6865;52.552;13.434;2023-11-21T08:33:27;6.13;;;4.17;;
13588;SDS011;6865;52.552;13.434;2023-11-21T08:35:53;7.87;;;4.80;;
13588;SDS011;6865;52.552;13.434;2023-11-21T08:38:21;8.03;;;4.63;;
13588;SDS011;6865;52.552;13.434;2023-11-21T08:40:47;7.83;;;4.40;;
13588;SDS011;6865;52.552;13.434;2023-11-21T08:43:14;9.33;;;4.87;;
13588;SDS011;6865;52.552;13.434;2023-11-21T08:45:42;8.13;;;5.00;;
13588;SDS011;6865;52.552;13.434;2023-11-21T08:48:09;9.90;;;5.27;;
13588;SDS011;6865;52.552;13.434;2023-11-21T08:50:37;8.30;;;4.70;;
13588;SDS011;6865;52.552;13.434;2023-11-21T08:53:04;10.63;;;5.07;;
13588;SDS011;6865;52.552;13.434;2023-11-21T08:55:31;8.47;;;5.10;;
13588;SDS011;6865;52.552;13.434;2023-11-21T08:58:03;8.33;;;5.00;;
13588;SDS011;6865;52.552;13.434;2023-11-21T09:00:32;10.03;;;5.07;;
13588;SDS011;6865;52.552;13.434;2023-11-21T09:03:00;10.13;;;5.47;;
13588;SDS011;6865;52.552;13.434;2023-11-21T09:05:28;7.50;;;4.53;;
13588;SDS011;6865;52.552;13.434;2023-11-21T09:07:54;12.13;;;5.50;;
13588;SDS011;6865;52.552;13.434;2023-11-21T09:10:21;10.43;;;5.73;;
13588;SDS011;6865;52.552;13.434;2023-11-21T09:12:48;12.43;;;5.60;;
13588;SDS011;6865;52.552;13.434;2023-11-21T09:15:14;11.57;;;5.73;;
13588;SDS011;6865;52.552;13.434;2023-11-21T09:17:41;11.93;;;6.23;;
13588;SDS011;6865;52.552;13.434;2023-11-21T09:20:09;13.00;;;6.37;;
13588;SDS011;6865;52.552;13.434;2023-11-21T09:22:37;12.63;;;6.93;;
13588;SDS011;6865;52.552;13.434;2023-11-21T09:25:04;13.80;;;6.83;;
13588;SDS011;6865;52.552;13.434;2023-11-21T09:27:31;13.97;;;6.77;;
13588;SDS011;6865;52.552;13.434;2023-11-21T09:29:58;11.40;;;5.90;;
13588;SDS011;6865;52.552;13.434;2023-11-21T09:32:25;13.07;;;5.47;;
13588;SDS011;6865;52.552;13.434;2023-11-21T09:34:51;13.17;;;5.73;;
13588;SDS011;6865;52.552;13.434;2023-11-21T09:37:19;12.53;;;5.97;;
13588;SDS011;6865;52.552;13.434;2023-11-21T09:39:45;9.63;;;5.17;;
13588;SDS011;6865;52.552;13.434;2023-11-21T09:42:17;10.17;;;4.70;;
13588;SDS011;6865;52.552;13.434;2023-11-21T09:44:54;9.83;;;4.20;;
13588;SDS011;6865;52.552;13.434;2023-11-21T09:47:30;7.30;;;4.30;;
13588;SDS011;6865;52.552;13.434;2023-11-21T09:49:59;4.77;;;3.00;;
13588;SDS011;6865;52.552;13.434;2023-11-21T09:52:28;5.70;;;3.20;;
13588;SDS011;6865;52.552;13.434;2023-11-21T09:54:55;4.67;;;3.10;;
13588;SDS011;6865;52.552;13.434;2023-11-21T09:57:25;6.00;;;3.10;;
13588;SDS011;6865;52.552;13.434;2023-11-21T09:59:53;7.20;;;3.90;;
13588;SDS011;6865;52.552;13.434;2023-11-21T10:02:26;6.43;;;3.40;;
13588;SDS011;6865;52.552;13.434;2023-11-21T10:04:56;8.13;;;3.17;;
13588;SDS011;6865;52.552;13.434;2023-11-21T10:07:23;5.93;;;3.17;;
13588;SDS011;6865;52.552;13.434;2023-11-21T10:09:50;5.67;;;3.00;;
13588;SDS011;6865;52.552;13.434;2023-11-21T10:12:19;5.53;;;3.03;;
13588;SDS011;6865;52.552;13.434;2023-11-21T10:14:48;5.73;;;3.67;;
13588;SDS011;6865;52.552;13.434;2023-11-21T10:17:16;5.43;;;3.10;;
13588;SDS011;6865;52.552;13.434;2023-11-21T10:19:47;5.53;;;3.10;;
13588;SDS011;6865;52.552;13.434;2023-11-21T10:22:15;5.50;;;3.53;;
13588;SDS011;6865;52.552;13.434;2023-11-21T10:24:42;3.90;;;2.70;;
13588;SDS011;6865;52.552;13.434;2023-11-21T10:27:19;3.57;;;2.50;;
13588;SDS011;6865;52.552;13.434;2023-11-21T10:29:45;3.73;;;2.60;;
13588;SDS011;6865;52.552;13.434;2023-11-21T10:32:12;5.20;;;2.50;;
13588;SDS011;6865;52.552;13.434;2023-11-21T10:34:39;3.70;;;2.70;;
13588;SDS011;6865;52.552;13.434;2023-11-21T10:37:11;4.17;;;2.43;;
13588;SDS011;6865;52.552;13.434;2023-11-21T10:39:38;4.80;;;2.80;;
13588;SDS011;6865;52.552;13.434;2023-11-21T10:42:07;5.10;;;2.77;;
13588;SDS011;6865;52.552;13.434;2023-11-21T10:44:34;3.87;;;2.83;;
13588;SDS011;6865;52.552;13.434;2023-11-21T10:47:01;4.37;;;2.80;;
13588;SDS011;6865;52.552;13.434;2023-11-21T10:49:28;2.93;;;2.30;;
13588;SDS011;6865;52.552;13.434;2023-11-21T10:51:56;4.60;;;3.40;;
13588;SDS011;6865;52.552;13.434;2023-11-21T10:54:23;4.57;;;2.83;;
13588;SDS011;6865;52.552;13.434;2023-11-21T10:56:58;3.53;;;2.90;;
13588;SDS011;6865;52.552;13.434;2023-11-21T10:59:30;3.43;;;2.87;;
13588;SDS011;6865;52.552;13.434;2023-11-21T11:01:59;3.77;;;3.03;;
13588;SDS011;6865;52.552;13.434;2023-11-21T11:04:30;5.97;;;3.07;;
13588;SDS011;6865;52.552;13.434;2023-11-21T11:06:57;3.60;;;2.83;;
13588;SDS011;6865;52.552;13.434;2023-11-21T11:09:31;4.00;;;3.07;;
13588;SDS011;6865;52.552;13.434;2023-11-21T11:12:02;4.53;;;3.00;;
13588;SDS011;6865;52.552;13.434;2023-11-21T11:14:30;2.90;;;2.60;;
13588;SDS011;6865;52.552;13.434;2023-11-21T11:16:58;4.13;;;3.23;;
13588;SDS011;6865;52.552;13.434;2023-11-21T11:19:27;3.47;;;3.00;;
13588;SDS011;6865;52.552;13.434;2023-11-21T11:22:00;4.07;;;2.93;;
13588;SDS011;6865;52.552;13.434;2023-11-21T11:24:53;5.63;;;3.53;;
13588;SDS011;6865;52.552;13.434;2023-11-21T11:30:33;4.87;;;3.03;;
13588;SDS011;6865;52.552;13.434;2023-11-21T11:33:30;5.50;;;4.37;;
13588;SDS011;6865;52.552;13.434;2023-11-21T11:36:26;4.47;;;3.10;;
13588;SDS011;6865;52.552;13.434;2023-11-21T11:38:57;3.63;;;3.20;;
13588;SDS011;6865;52.552;13.434;2023-11-21T11:41:29;3.83;;;3.00;;
13588;SDS011;6865;52.552;13.434;2023-11-21T11:43:59;4.00;;;3.30;;
13588;SDS011;6865;52.552;13.434;2023-11-21T11:46:40;5.47;;;3.20;;
13588;SDS011;6865;52.552;13.434;2023-11-21T11:49:23;6.17;;;3.00;;
13588;SDS011;6865;52.552;13.434;2023-11-21T11:54:59;4.43;;;3.30;;
13588;SDS011;6865;52.552;13.434;2023-11-21T11:57:29;5.97;;;3.20;;
13588;SDS011;6865;52.552;13.434;2023-11-21T12:00:20;4.60;;;2.60;;
13588;SDS011;6865;52.552;13.434;2023-11-21T12:02:52;2.73;;;2.40;;
13588;SDS011;6865;52.552;13.434;2023-11-21T12:05:31;3.17;;;2.70;;
13588;SDS011;6865;52.552;13.434;2023-11-21T12:08:02;3.23;;;2.53;;
13588;SDS011;6865;52.552;13.434;2023-11-21T12:10:31;4.23;;;2.60;;
13588;SDS011;6865;52.552;13.434;2023-11-21T12:13:10;6.40;;;2.93;;
13588;SDS011;6865;52.552;13.434;2023-11-21T12:15:40;5.60;;;3.03;;
13588;SDS011;6865;52.552;13.434;2023-11-21T12:18:08;3.43;;;2.50;;
13588;SDS011;6865;52.552;13.434;2023-11-21T12:20:35;5.47;;;3.10;;
13588;SDS011;6865;52.552;13.434;2023-11-21T12:23:06;3.27;;;2.63;;
13588;SDS011;6865;52.552;13.434;2023-11-21T12:25:35;3.90;;;3.17;;
13588;SDS011;6865;52.552;13.434;2023-11-21T12:28:03;3.43;;;3.00;;
13588;SDS011;6865;52.552;13.434;2023-11-21T12:30:30;4.50;;;2.70;;
13588;SDS011;6865;52.552;13.434;2023-11-21T12:33:02;3.40;;;3.03;;
13588;SDS011;6865;52.552;13.434;2023-11-21T12:35:33;3.10;;;2.40;;
13588;SDS011;6865;52.552;13.434;2023-11-21T12:38:02;3.57;;;2.97;;
13588;SDS011;6865;52.552;13.434;2023-11-21T12:40:29;3.57;;;2.90;;
13588;SDS011;6865;52.552;13.434;2023-11-21T12:42:56;3.40;;;2.60;;
13588;SDS011;6865;52.552;13.434;2023-11-21T12:45:25;4.53;;;3.00;;
13588;SDS011;6865;52.552;13.434;2023-11-21T12:47:57;4.23;;;2.83;;
13588;SDS011;6865;52.552;13.434;2023-11-21T12:50:35;3.03;;;2.40;;
13588;SDS011;6865;52.552;13.434;2023-11-21T12:53:04;5.07;;;3.40;;
13588;SDS011;6865;52.552;13.434;2023-11-21T12:55:32;5.30;;;3.30;;
13588;SDS011;6865;52.552;13.434;2023-11-21T12:58:02;5.97;;;3.70;;
13588;SDS011;6865;52.552;13.434;2023-11-21T13:00:39;4.10;;;3.20;;
13588;SDS011;6865;52.552;13.434;2023-11-21T13:03:12;4.00;;;2.83;;
13588;SDS011;6865;52.552;13.434;2023-11-21T13:05:45;3.87;;;2.97;;
13588;SDS011;6865;52.552;13.434;2023-11-21T13:08:18;3.47;;;3.10;;
13588;SDS011;6865;52.552;13.434;2023-11-21T13:10:49;3.97;;;3.20;;
13588;SDS011;6865;52.552;13.434;2023-11-21T13:13:18;4.77;;;3.37;;
13588;SDS011;6865;52.552;13.434;2023-11-21T13:15:56;4.43;;;3.20;;
13588;SDS011;6865;52.552;13.434;2023-11-21T13:18:32;5.57;;;3.20;;
13588;SDS011;6865;52.552;13.434;2023-11-21T13:20:59;5.83;;;3.47;;
13588;SDS011;6865;52.552;13.434;2023-11-21T13:23:35;5.37;;;4.03;;
13588;SDS011;6865;52.552;13.434;2023-11-21T13:26:03;5.73;;;4.00;;
13588;SDS011;6865;52.552;13.434;2023-11-21T13:28:33;5.07;;;3.93;;
13588;SDS011;6865;52.552;13.434;2023-11-21T13:31:01;5.40;;;4.33;;
13588;SDS011;6865;52.552;13.434;2023-11-21T13:33:36;6.00;;;4.57;;
13588;SDS011;6865;52.552;13.434;2023-11-21T13:36:09;6.20;;;4.40;;
13588;SDS011;6865;52.552;13.434;2023-11-21T13:38:37;7.33;;;4.90;;
13588;SDS011;6865;52.552;13.434;2023-11-21T13:41:09;5.97;;;4.60;;
13588;SDS011;6865;52.552;13.434;2023-11-21T13:43:36;6.77;;;4.10;;
13588;SDS011;6865;52.552;13.434;2023-11-21T13:46:04;8.87;;;4.90;;
13588;SDS011;6865;52.552;13.434;2023-11-21T13:48:40;6.73;;;4.70;;
13588;SDS011;6865;52.552;13.434;2023-11-21T13:51:17;5.90;;;4.50;;
13588;SDS011;6865;52.552;13.434;2023-11-21T13:53:44;9.07;;;4.87;;
13588;SDS011;6865;52.552;13.434;2023-11-21T13:56:16;6.43;;;4.43;;
13588;SDS011;6865;52.552;13.434;2023-11-21T13:58:47;6.30;;;4.70;;
13588;SDS011;6865;52.552;13.434;2023-11-21T14:01:18;6.77;;;5.20;;
13588;SDS011;6865;52.552;13.434;2023-11-21T14:03:57;7.27;;;5.60;;
13588;SDS011;6865;52.552;13.434;2023-11-21T14:06:43;8.20;;;6.00;;
13588;SDS011;6865;52.552;13.434;2023-11-21T14:09:15;8.60;;;6.40;;
13588;SDS011;6865;52.552;13.434;2023-11-21T14:11:52;8.43;;;6.30;;
13588;SDS011;6865;52.552;13.434;2023-11-21T14:14:23;10.37;;;7.33;;
13588;SDS011;6865;52.552;13.434;2023-11-21T14:16:52;11.13;;;8.00;;
13588;SDS011;6865;52.552;13.434;2023-11-21T14:19:19;15.30;;;10.13;;
13588;SDS011;6865;52.552;13.434;2023-11-21T14:21:47;14.60;;;10.10;;
13588;SDS011;6865;52.552;13.434;2023-11-21T14:24:16;15.57;;;10.30;;
13588;SDS011;6865;52.552;13.434;2023-11-21T14:26:45;16.80;;;11.13;;
13588;SDS011;6865;52.552;13.434;2023-11-21T14:29:12;14.77;;;10.60;;
13588;SDS011;6865;52.552;13.434;2023-11-21T14:31:43;13.53;;;10.17;;
13588;SDS011;6865;52.552;13.434;2023-11-21T14:34:10;14.53;;;9.90;;
13588;SDS011;6865;52.552;13.434;2023-11-21T14:36:38;15.20;;;10.33;;
13588;SDS011;6865;52.552;13.434;2023-11-21T14:39:06;15.83;;;11.27;;
13588;SDS011;6865;52.552;13.434;2023-11-21T14:41:35;15.97;;;11.20;;
13588;SDS011;6865;52.552;13.434;2023-11-21T14:44:04;17.13;;;11.77;;
13588;SDS011;6865;52.552;13.434;2023-11-21T14:46:33;16.83;;;12.10;;
13588;SDS011;6865;52.552;13.434;2023-11-21T14:49:03;16.20;;;11.33;;
13588;SDS011;6865;52.552;13.434;2023-11-21T14:51:46;15.00;;;11.13;;
13588;SDS011;6865;52.552;13.434;2023-11-21T14:54:27;16.77;;;11.07;;
13588;SDS011;6865;52.552;13.434;2023-11-21T14:57:13;20.90;;;11.77;;
13588;SDS011;6865;52.552;13.434;2023-11-21T14:59:47;15.13;;;10.73;;